Time;durP1;ratioP1;P1;durP2;ratioP2;P2;SDS_P1;SDS_P2;PMS_P1;PMS_P2;Temp;Humidity;BMP_temperature;BMP_pressure;BME280_temperature;BME280_humidity;BME280_pressure;Samples;Min_cycle;Max_cycle;Signal;HPM_P1;HPM_P2
2022/11/19 00:00:46;;;;;;;;;;;;;;;29.11;29.28;99449.16;4979107;28;1777;-39
2022/11/19 00:03:11;;;;;;;;;;;;;;;28.48;30.15;99443.78;4979426;28;1468;-40
2022/11/19 00:05:38;;;;;;;;;;;;;;;28.60;29.82;99455.53;4979755;28;1953;-40
2022/11/19 00:08:03;;;;;;;;;;;;;;;29.27;28.83;99457.69;4969568;28;1161;-39
2022/11/19 00:10:28;;;;;;;;;;;;;;;28.89;29.55;99456.88;4975394;28;1150;-38
2022/11/19 00:12:53;;;;;;;;;;;;;;;28.31;30.50;99457.06;4979289;28;1121;-40
2022/11/19 00:15:19;;;;;;;;;;;;;;;28.88;29.44;99460.66;4979220;28;1099;-38
2022/11/19 00:17:44;;;;;;;;;;;;;;;29.16;28.98;99468.22;4979229;28;1137;-40
2022/11/19 00:20:10;;;;;;;;;;;;;;;28.93;28.92;99477.00;4979398;28;1114;-40
2022/11/19 00:22:35;;;;;;;;;;;;;;;27.95;30.75;99471.06;4979082;28;1239;-39
2022/11/19 00:25:00;;;;;;;;;;;;;;;28.84;29.69;99482.72;4978617;28;1421;-41
2022/11/19 00:27:26;;;;;;;;;;;;;;;28.94;29.31;99487.66;4979292;28;1914;-40
2022/11/19 00:29:51;;;;;;;;;;;;;;;28.58;29.66;99494.66;4979222;28;1149;-39
2022/11/19 00:32:16;;;;;;;;;;;;;;;28.30;30.62;99498.66;4977073;28;2106;-40
2022/11/19 00:34:41;;;;;;;;;;;;;;;29.14;29.02;99496.59;4979357;28;1567;-40
2022/11/19 00:37:07;;;;;;;;;;;;;;;28.88;29.47;99493.13;4978253;28;1114;-41
2022/11/19 00:39:32;;;;;;;;;;;;;;;28.31;30.17;99494.91;4978750;28;1166;-39
2022/11/19 00:41:57;;;;;;;;;;;;;;;28.31;30.45;99494.91;4979075;28;1173;-38
2022/11/19 00:44:22;;;;;;;;;;;;;;;29.06;29.13;99511.28;4978958;28;1138;-41
2022/11/19 00:46:48;;;;;;;;;;;;;;;29.00;28.75;99502.16;4979007;28;1902;-40
2022/11/19 00:49:13;;;;;;;;;;;;;;;28.16;30.52;99511.47;4978334;28;1125;-40
2022/11/19 00:51:38;;;;;;;;;;;;;;;28.93;29.21;99510.34;4970019;28;2340;-40
2022/11/19 00:54:04;;;;;;;;;;;;;;;28.89;29.61;99513.72;4979172;28;1150;-41
2022/11/19 00:56:29;;;;;;;;;;;;;;;28.42;30.20;99512.31;4978699;28;1162;-39
2022/11/19 00:58:54;;;;;;;;;;;;;;;27.85;31.12;99503.16;4978558;28;1163;-38
2022/11/19 01:01:20;;;;;;;;;;;;;;;28.79;29.42;99500.72;4978652;28;1134;-41
2022/11/19 01:03:45;;;;;;;;;;;;;;;28.76;29.62;99509.28;4979130;28;1224;-40
2022/11/19 01:06:11;;;;;;;;;;;;;;;28.17;30.27;99510.41;4978499;28;1907;-42
2022/11/19 01:08:36;;;;;;;;;;;;;;;28.57;29.77;99503.84;4964579;28;1141;-41
2022/11/19 01:11:05;;;;;;;;;;;;;;;29.24;28.77;99512.31;4978839;28;1137;-40
2022/11/19 01:13:36;;;;;;;;;;;;;;;28.94;28.75;99530.97;4978476;28;1138;-40
2022/11/19 01:16:21;;;;;;;;;;;;;;;27.99;30.48;99530.94;4978207;28;1074;-40
2022/11/19 01:18:47;;;;;;;;;;;;;;;28.84;29.16;99533.34;4977468;28;1486;-39
2022/11/19 01:21:13;;;;;;;;;;;;;;;29.00;29.04;99539.25;4977950;28;1227;-40
2022/11/19 01:23:38;;;;;;;;;;;;;;;28.30;30.06;99540.06;4978154;28;1120;-38
2022/11/19 01:26:04;;;;;;;;;;;;;;;28.47;29.98;99547.63;4976946;28;1906;-40
2022/11/19 01:28:29;;;;;;;;;;;;;;;29.18;28.83;99538.41;4977175;28;1067;-40
2022/11/19 01:30:54;;;;;;;;;;;;;;;28.93;29.25;99542.81;4978590;28;1126;-40
2022/11/19 01:33:21;;;;;;;;;;;;;;;28.03;30.42;99540.25;4978629;28;1359;-39
2022/11/19 01:35:56;;;;;;;;;;;;;;;28.63;29.43;99548.13;4977903;28;1285;-40
2022/11/19 01:38:21;;;;;;;;;;;;;;;28.84;29.20;99549.59;4977124;28;877;-38
2022/11/19 01:40:46;;;;;;;;;;;;;;;28.22;30.09;99543.88;4978066;28;1141;-40
2022/11/19 01:43:12;;;;;;;;;;;;;;;27.58;31.51;99547.34;4978099;28;1114;-40
2022/11/19 01:45:44;;;;;;;;;;;;;;;28.55;29.42;99550.06;4977714;28;1906;-39
2022/11/19 01:48:18;;;;;;;;;;;;;;;28.88;29.06;99556.19;4977863;28;1234;-40
2022/11/19 01:50:46;;;;;;;;;;;;;;;28.35;29.81;99552.94;4977571;28;880;-39
2022/11/19 01:53:11;;;;;;;;;;;;;;;28.43;29.52;99563.47;4977935;28;1149;-39
2022/11/19 01:55:36;;;;;;;;;;;;;;;29.20;28.48;99557.97;4960767;28;1204;-38
2022/11/19 01:58:02;;;;;;;;;;;;;;;28.82;28.86;99546.28;4978231;28;1137;-38
2022/11/19 02:00:27;;;;;;;;;;;;;;;28.00;30.22;99562.31;4977118;28;1106;-39
2022/11/19 02:02:53;;;;;;;;;;;;;;;28.76;28.93;99566.94;4977262;28;883;-40
2022/11/19 02:05:18;;;;;;;;;;;;;;;28.89;28.81;99563.28;4977543;28;1898;-40
2022/11/19 02:07:44;;;;;;;;;;;;;;;28.70;29.27;99546.19;4952616;29;1126;-41
2022/11/19 02:10:09;;;;;;;;;;;;;;;27.95;30.38;99554.03;4954114;28;1159;-39
2022/11/19 02:12:38;;;;;;;;;;;;;;;28.74;29.11;99555.53;4978151;28;1162;-38
2022/11/19 02:15:14;;;;;;;;;;;;;;;28.74;28.94;99547.41;4977061;28;890;-40
2022/11/19 02:17:52;;;;;;;;;;;;;;;28.21;29.96;99552.19;4960590;28;1130;-40
2022/11/19 02:20:35;;;;;;;;;;;;;;;27.92;30.50;99560.72;4977065;28;1129;-41
2022/11/19 02:23:01;;;;;;;;;;;;;;;29.01;28.84;99567.97;4976967;28;1247;-39
2022/11/19 02:25:45;;;;;;;;;;;;;;;28.82;28.90;99576.88;4977216;28;1981;-40
2022/11/19 02:28:19;;;;;;;;;;;;;;;28.00;30.14;99581.22;4965619;28;1131;-40
2022/11/19 02:30:45;;;;;;;;;;;;;;;28.72;28.52;99588.22;4976907;28;1166;-39
2022/11/19 02:33:15;;;;;;;;;;;;;;;28.96;28.54;99588.38;4960277;28;1126;-40
2022/11/19 02:35:43;;;;;;;;;;;;;;;28.45;29.29;99607.38;4977895;28;1130;-41
2022/11/19 02:38:12;;;;;;;;;;;;;;;28.57;29.03;99609.38;4959346;28;940;-39
2022/11/19 02:40:41;;;;;;;;;;;;;;;29.04;28.31;99618.97;4977163;28;1149;-41
2022/11/19 02:43:12;;;;;;;;;;;;;;;28.99;28.31;99626.94;4960232;28;1217;-39
2022/11/19 02:45:46;;;;;;;;;;;;;;;27.86;30.04;99623.75;4977070;28;1894;-40
2022/11/19 02:48:16;;;;;;;;;;;;;;;28.53;28.76;99636.03;4977322;28;1173;-41
2022/11/19 02:50:42;;;;;;;;;;;;;;;28.85;28.50;99637.84;4959252;28;1118;-40
2022/11/19 02:53:08;;;;;;;;;;;;;;;28.56;28.69;99641.00;4959547;28;1162;-39
2022/11/19 02:55:34;;;;;;;;;;;;;;;28.32;29.52;99634.47;4977525;28;1200;-40
2022/11/19 02:58:04;;;;;;;;;;;;;;;29.05;28.23;99651.22;4976929;28;1118;-39
2022/11/19 03:06:00;;;;;;;;;;;;;;;28.47;28.95;99650.44;4976914;28;1890;-39
2022/11/19 03:08:26;;;;;;;;;;;;;;;28.72;28.71;99658.56;4964191;28;1105;-39
2022/11/19 03:10:51;;;;;;;;;;;;;;;28.38;28.94;99667.97;4976215;28;1099;-40
2022/11/19 03:18:48;;;;;;;;;;;;;;;28.82;28.56;99689.72;4962407;28;1158;-40
2022/11/19 03:21:22;;;;;;;;;;;;;;;27.95;30.33;99694.56;4976755;28;1170;-40
2022/11/19 03:23:56;;;;;;;;;;;;;;;28.01;30.56;99696.41;4976560;28;1225;-41
2022/11/19 03:26:34;;;;;;;;;;;;;;;28.97;28.62;99711.06;4976423;28;1947;-40
2022/11/19 03:29:00;;;;;;;;;;;;;;;28.88;28.06;99715.09;4976633;28;1146;-38
2022/11/19 03:31:26;;;;;;;;;;;;;;;28.04;30.14;99714.94;4959510;28;1146;-40
2022/11/19 03:33:51;;;;;;;;;;;;;;;28.81;28.77;99724.06;4962703;28;1158;-40
2022/11/19 03:36:24;;;;;;;;;;;;;;;28.87;28.89;99730.50;4962743;28;1193;-41
2022/11/19 03:38:51;;;;;;;;;;;;;;;28.15;29.68;99739.59;4962991;28;1205;-39
2022/11/19 03:41:17;;;;;;;;;;;;;;;27.87;30.33;99738.91;4980215;28;1192;-39
2022/11/19 03:43:42;;;;;;;;;;;;;;;28.96;28.49;99745.41;4962832;28;1220;-40
2022/11/19 03:46:09;;;;;;;;;;;;;;;28.78;28.58;99750.75;4980563;28;1955;-40
2022/11/19 03:48:34;;;;;;;;;;;;;;;28.07;29.59;99757.75;4962762;28;1173;-40
2022/11/19 03:51:02;;;;;;;;;;;;;;;28.71;28.29;99765.16;4962184;28;1272;-40
2022/11/19 03:53:27;;;;;;;;;;;;;;;28.96;28.32;99767.06;4966411;28;1158;-40
2022/11/19 03:56:00;;;;;;;;;;;;;;;28.47;29.08;99785.69;4963019;28;1114;-39
2022/11/19 03:58:26;;;;;;;;;;;;;;;27.71;30.18;99781.53;4962893;28;1130;-40
2022/11/19 04:00:51;;;;;;;;;;;;;;;28.66;28.32;99780.38;4962855;28;1220;-39
2022/11/19 04:03:16;;;;;;;;;;;;;;;28.79;28.36;99793.00;4979499;28;1142;-41
2022/11/19 04:05:42;;;;;;;;;;;;;;;28.27;28.96;99802.81;4979783;28;1898;-40
2022/11/19 04:08:07;;;;;;;;;;;;;;;28.39;28.74;99816.53;4969344;28;1149;-40
2022/11/19 04:10:32;;;;;;;;;;;;;;;28.95;27.92;99816.84;4976785;28;1119;-38
2022/11/19 04:12:57;;;;;;;;;;;;;;;28.75;28.32;99819.66;4979922;28;1150;-41
2022/11/19 04:15:23;;;;;;;;;;;;;;;27.95;29.33;99817.03;4978926;28;1150;-40
2022/11/19 04:17:48;;;;;;;;;;;;;;;28.17;29.84;99824.91;4979494;28;1177;-41
2022/11/19 04:20:13;;;;;;;;;;;;;;;28.81;28.46;99823.41;4979640;28;1189;-40
2022/11/19 04:22:39;;;;;;;;;;;;;;;28.16;29.58;99827.81;4979371;28;1515;-40
2022/11/19 04:25:04;;;;;;;;;;;;;;;27.93;30.27;99840.75;4979359;28;1157;-39
2022/11/19 04:27:29;;;;;;;;;;;;;;;28.79;28.67;99844.44;4979349;28;1961;-39
2022/11/19 04:29:55;;;;;;;;;;;;;;;29.02;28.30;99843.06;4979556;28;1110;-38
2022/11/19 04:32:20;;;;;;;;;;;;;;;27.98;29.72;99857.16;4977737;28;1534;-43
2022/11/19 04:34:45;;;;;;;;;;;;;;;27.30;31.32;99874.38;4978897;28;1007;-36
2022/11/19 04:37:11;;;;;;;;;;;;;;;27.13;31.79;99885.56;4978930;28;1197;-38
2022/11/19 04:39:36;;;;;;;;;;;;;;;27.02;32.30;99879.75;4979717;28;904;-38
2022/11/19 04:42:01;;;;;;;;;;;;;;;27.18;32.03;99888.50;4979282;28;1161;-38
2022/11/19 04:44:26;;;;;;;;;;;;;;;27.73;31.28;99906.47;4977809;28;1125;-38
2022/11/19 04:46:52;;;;;;;;;;;;;;;27.67;31.04;99904.56;4979260;28;1906;-38
2022/11/19 04:49:17;;;;;;;;;;;;;;;26.83;32.80;99902.91;4979304;28;1145;-43
2022/11/19 04:51:42;;;;;;;;;;;;;;;26.99;32.99;99906.28;4978540;28;1011;-43
2022/11/19 04:54:08;;;;;;;;;;;;;;;27.10;31.81;99923.78;4978822;28;1293;-43
2022/11/19 04:56:33;;;;;;;;;;;;;;;27.30;29.76;99923.84;4978426;28;1211;-43
2022/11/19 04:58:59;;;;;;;;;;;;;;;27.31;29.72;99920.09;4977925;28;1396;-43
2022/11/19 05:01:24;;;;;;;;;;;;;;;27.47;30.57;99927.00;4978764;28;1058;-42
2022/11/19 05:03:49;;;;;;;;;;;;;;;27.67;30.66;99936.16;4978472;28;1153;-43
2022/11/19 05:06:14;;;;;;;;;;;;;;;27.38;31.40;99934.44;4977160;28;1907;-42
2022/11/19 05:08:40;;;;;;;;;;;;;;;27.51;31.35;99924.69;4977385;28;1115;-43
2022/11/19 05:11:05;;;;;;;;;;;;;;;27.57;31.16;99939.25;4978624;28;1205;-39
2022/11/19 05:13:30;;;;;;;;;;;;;;;27.66;30.95;99953.41;4977673;28;1150;-38
2022/11/19 05:15:56;;;;;;;;;;;;;;;27.94;30.42;99961.34;4977557;28;1162;-38
2022/11/19 05:18:22;;;;;;;;;;;;;;;27.86;30.63;99950.75;4978466;28;1259;-39
2022/11/19 05:20:47;;;;;;;;;;;;;;;27.71;30.92;99956.34;4978368;28;1393;-36
2022/11/19 05:23:12;;;;;;;;;;;;;;;27.59;31.10;99967.72;4978189;28;1200;-34
2022/11/19 05:25:38;;;;;;;;;;;;;;;27.63;31.08;99978.94;4978184;28;1902;-39
2022/11/19 05:28:03;;;;;;;;;;;;;;;27.66;30.80;99977.72;4976937;28;2498;-32
2022/11/19 05:30:28;;;;;;;;;;;;;;;27.61;30.86;99987.25;4977923;28;2443;-39
2022/11/19 05:32:54;;;;;;;;;;;;;;;27.37;31.46;100003.00;4978002;28;1834;-36
2022/11/19 05:35:19;;;;;;;;;;;;;;;27.43;31.21;100009.44;4968364;28;1986;-35
2022/11/19 05:37:47;;;;;;;;;;;;;;;26.75;31.80;100013.69;4975263;28;2172;-40
2022/11/19 05:40:12;;;;;;;;;;;;;;;26.72;32.01;100012.25;4977593;28;2224;-41
2022/11/19 05:42:38;;;;;;;;;;;;;;;26.89;32.51;100020.00;4977302;28;2261;-42
2022/11/19 05:45:03;;;;;;;;;;;;;;;27.14;31.81;100024.94;4977558;28;1122;-39
2022/11/19 05:47:28;;;;;;;;;;;;;;;27.28;31.32;100041.19;4977708;28;1902;-32
2022/11/19 05:49:54;;;;;;;;;;;;;;;27.34;31.59;100048.50;4977704;28;1201;-35
2022/11/19 05:52:19;;;;;;;;;;;;;;;27.26;31.49;100066.53;4977450;28;859;-37
2022/11/19 05:54:44;;;;;;;;;;;;;;;27.25;31.42;100070.25;4977400;28;1263;-39
2022/11/19 05:57:09;;;;;;;;;;;;;;;27.31;31.57;100082.13;4976798;28;1114;-42
2022/11/19 05:59:36;;;;;;;;;;;;;;;27.26;31.62;100080.03;4977310;28;1107;-39
2022/11/19 06:02:01;;;;;;;;;;;;;;;27.36;31.13;100086.94;4977234;28;1099;-40
2022/11/19 06:04:26;;;;;;;;;;;;;;;27.60;30.89;100092.81;4977429;28;807;-42
2022/11/19 06:06:52;;;;;;;;;;;;;;;27.85;30.62;100100.41;4977096;28;1960;-42
2022/11/19 06:09:17;;;;;;;;;;;;;;;27.38;31.18;100112.69;4977510;28;1157;-43
2022/11/19 06:11:51;;;;;;;;;;;;;;;27.06;31.56;100120.41;4977276;28;2462;-41
2022/11/19 06:14:17;;;;;;;;;;;;;;;27.12;31.88;100130.44;4982811;28;1157;-41
2022/11/19 06:16:43;;;;;;;;;;;;;;;27.27;31.87;100126.78;4982331;28;909;-40
2022/11/19 06:19:08;;;;;;;;;;;;;;;27.43;31.73;100120.19;4977082;28;1103;-39
2022/11/19 06:21:33;;;;;;;;;;;;;;;27.76;31.11;100113.28;4977335;28;1118;-40
2022/11/19 06:23:58;;;;;;;;;;;;;;;27.74;31.17;100121.59;4976787;28;1267;-41
2022/11/19 06:26:24;;;;;;;;;;;;;;;27.61;31.63;100133.16;4977035;28;1894;-40
2022/11/19 06:28:50;;;;;;;;;;;;;;;27.64;32.09;100140.03;4977096;28;843;-41
2022/11/19 06:31:15;;;;;;;;;;;;;;;27.28;31.32;100139.22;4976835;28;1439;-38
2022/11/19 06:33:40;;;;;;;;;;;;;;;26.95;31.03;100139.81;4977186;28;1156;-38
2022/11/19 06:36:06;;;;;;;;;;;;;;;26.76;31.76;100151.09;4976816;28;1102;-39
2022/11/19 06:38:31;;;;;;;;;;;;;;;26.75;31.03;100162.09;4977045;28;1129;-40
2022/11/19 06:40:56;;;;;;;;;;;;;;;26.72;30.98;100174.13;4976747;28;1094;-40
2022/11/19 06:43:22;;;;;;;;;;;;;;;26.73;31.77;100167.69;4976907;28;2667;-40
2022/11/19 06:45:47;;;;;;;;;;;;;;;26.74;30.72;100174.72;4977106;28;1957;-41
2022/11/19 06:48:12;;;;;;;;;;;;;;;26.51;31.19;100170.41;4977264;28;1165;-36
2022/11/19 06:50:38;;;;;;;;;;;;;;;26.71;30.33;100172.44;4977005;28;1146;-40
2022/11/19 06:53:03;;;;;;;;;;;;;;;26.87;29.26;100165.09;4976648;28;1134;-40
2022/11/19 06:55:28;;;;;;;;;;;;;;;26.69;29.88;100147.53;4977083;28;1106;-38
2022/11/19 06:57:53;;;;;;;;;;;;;;;26.78;29.55;100154.44;4976783;28;1102;-40
2022/11/19 07:00:19;;;;;;;;;;;;;;;26.89;29.31;100158.47;4977006;28;1177;-38
2022/11/19 07:02:44;;;;;;;;;;;;;;;27.06;29.70;100165.47;4976891;28;1086;-40
2022/11/19 07:05:09;;;;;;;;;;;;;;;27.16;29.67;100179.44;4959120;28;1247;-39
2022/11/19 07:07:34;;;;;;;;;;;;;;;27.12;29.23;100170.09;4977944;28;1906;-39
2022/11/19 07:10:00;;;;;;;;;;;;;;;27.02;29.41;100183.94;4980085;28;1101;-40
2022/11/19 07:12:25;;;;;;;;;;;;;;;26.97;30.78;100183.66;4980708;28;1851;-36
2022/11/19 07:14:50;;;;;;;;;;;;;;;27.05;30.15;100177.28;4980607;28;1134;-36
2022/11/19 07:17:16;;;;;;;;;;;;;;;26.99;29.75;100181.59;4980111;28;1169;-36
2022/11/19 07:19:41;;;;;;;;;;;;;;;27.29;30.96;100185.97;4980043;28;1162;-38
2022/11/19 07:22:06;;;;;;;;;;;;;;;27.10;30.01;100178.38;4980383;28;1178;-39
2022/11/19 07:24:32;;;;;;;;;;;;;;;26.99;28.39;100185.09;4966786;28;1302;-40
2022/11/19 07:26:57;;;;;;;;;;;;;;;26.17;29.30;100191.56;4980057;28;1906;-40
2022/11/19 07:29:22;;;;;;;;;;;;;;;25.48;29.53;100187.38;4979490;28;1153;-36
2022/11/19 07:31:49;;;;;;;;;;;;;;;25.70;28.91;100199.13;4980430;28;1094;-37
2022/11/19 07:34:14;;;;;;;;;;;;;;;25.72;28.57;100204.31;4980193;28;1154;-40
2022/11/19 07:36:40;;;;;;;;;;;;;;;25.54;28.98;100198.25;4980650;28;1193;-36
2022/11/19 07:39:05;;;;;;;;;;;;;;;25.39;29.38;100209.00;4979897;28;1189;-36
2022/11/19 07:44:14;;;;;;;;;;;;;;;25.23;29.73;100226.16;4974206;28;1020;-36
2022/11/19 07:46:39;;;;;;;;;;;;;;;25.68;28.98;100231.63;4980223;28;1939;-39
2022/11/19 07:49:05;;;;;;;;;;;;;;;25.76;29.03;100233.38;4980142;28;1153;-38
2022/11/19 07:51:30;;;;;;;;;;;;;;;25.96;28.57;100242.75;4979499;28;1200;-39
2022/11/19 07:53:55;;;;;;;;;;;;;;;26.38;28.47;100243.91;4979618;28;896;-39
2022/11/19 07:56:21;;;;;;;;;;;;;;;26.51;28.39;100254.00;4979824;28;1137;-35
2022/11/19 07:58:46;;;;;;;;;;;;;;;26.28;28.85;100259.53;4979552;28;1126;-38
2022/11/19 08:01:12;;;;;;;;;;;;;;;26.29;28.42;100255.81;4979638;28;1315;-37
2022/11/19 08:03:38;;;;;;;;;;;;;;;25.72;28.87;100253.66;4980041;28;1090;-38
2022/11/19 08:06:04;;;;;;;;;;;;;;;25.65;29.29;100260.78;4978999;28;1906;-39
2022/11/19 08:08:30;;;;;;;;;;;;;;;25.15;29.50;100264.78;4979590;28;1186;-36
2022/11/19 08:10:55;;;;;;;;;;;;;;;24.97;30.24;100267.78;4979884;28;1284;-45
2022/11/19 08:13:20;;;;;;;;;;;;;;;25.23;38.74;100284.53;4977242;28;2464;-44
2022/11/19 08:15:46;;;;;;;;;;;;;;;25.06;35.32;100279.28;4979488;28;1173;-44
2022/11/19 08:18:11;;;;;;;;;;;;;;;24.78;36.63;100279.81;4979055;28;1367;-44
2022/11/19 08:20:37;;;;;;;;;;;;;;;24.73;33.03;100276.81;4961113;28;1464;-44
2022/11/19 08:23:03;;;;;;;;;;;;;;;25.51;29.66;100286.63;4979186;28;1225;-38
2022/11/19 08:25:28;;;;;;;;;;;;;;;25.75;28.87;100287.44;4979429;28;1114;-41
2022/11/19 08:27:53;;;;;;;;;;;;;;;25.62;28.35;100290.75;4977973;28;1883;-42
2022/11/19 08:30:19;;;;;;;;;;;;;;;25.78;27.89;100296.00;4972995;28;936;-40
2022/11/19 08:32:44;;;;;;;;;;;;;;;25.66;28.03;100294.78;4979273;28;1180;-41
2022/11/19 08:35:09;;;;;;;;;;;;;;;25.57;28.43;100291.31;4979323;28;1098;-41
2022/11/19 08:37:34;;;;;;;;;;;;;;;25.77;28.18;100301.56;4978615;28;1475;-40
2022/11/19 08:40:00;;;;;;;;;;;;;;;26.34;27.64;100311.91;4978995;28;1138;-40
2022/11/19 08:45:22;;;;;;;;;;;;;;;26.39;26.76;100307.59;4933567;29;1299;-41
2022/11/19 08:47:48;;;;;;;;;;;;;;;26.52;27.06;100306.94;4978375;28;1969;-38
2022/11/19 08:50:13;;;;;;;;;;;;;;;26.66;27.01;100307.06;4978503;28;1130;-41
2022/11/19 08:52:38;;;;;;;;;;;;;;;26.82;26.43;100305.16;4978682;28;1157;-41
2022/11/19 08:55:04;;;;;;;;;;;;;;;26.61;26.58;100315.72;4978617;28;1054;-40
2022/11/19 08:57:29;;;;;;;;;;;;;;;26.86;26.07;100320.78;4978493;28;1228;-41
2022/11/19 08:59:55;;;;;;;;;;;;;;;27.01;25.97;100326.16;4978755;28;1165;-41
2022/11/19 09:02:20;;;;;;;;;;;;;;;26.94;26.59;100319.00;4978399;28;1181;-40
2022/11/19 09:04:45;;;;;;;;;;;;;;;26.68;26.90;100307.72;4977895;28;1142;-40
2022/11/19 09:07:10;;;;;;;;;;;;;;;26.71;26.83;100309.22;4978529;28;1906;-39
2022/11/19 09:09:36;;;;;;;;;;;;;;;26.60;26.83;100316.78;4978507;28;1085;-41
2022/11/19 09:12:01;;;;;;;;;;;;;;;26.92;26.70;100310.25;4978430;28;1890;-40
2022/11/19 09:14:26;;;;;;;;;;;;;;;27.05;26.44;100321.19;4979011;28;1356;-40
2022/11/19 09:16:52;;;;;;;;;;;;;;;27.14;26.72;100325.44;4978220;28;1169;-38
2022/11/19 09:19:17;;;;;;;;;;;;;;;27.18;26.41;100322.34;4977797;28;1205;-39
2022/11/19 09:21:42;;;;;;;;;;;;;;;27.39;26.62;100316.09;4973054;28;1156;-40
2022/11/19 09:24:07;;;;;;;;;;;;;;;27.50;26.17;100320.13;4970053;28;1124;-39
2022/11/19 09:26:33;;;;;;;;;;;;;;;27.57;26.33;100321.03;4969069;28;2466;-37
2022/11/19 09:28:59;;;;;;;;;;;;;;;27.59;26.18;100334.31;4978005;28;2734;-38
2022/11/19 09:31:24;;;;;;;;;;;;;;;27.64;26.43;100334.56;4970822;28;1853;-37
2022/11/19 09:33:50;;;;;;;;;;;;;;;27.59;25.74;100343.25;4977976;28;2423;-37
2022/11/19 09:36:17;;;;;;;;;;;;;;;27.47;26.48;100342.97;4978108;28;1838;-34
2022/11/19 09:38:42;;;;;;;;;;;;;;;28.02;26.45;100349.59;4977474;28;1863;-36
2022/11/19 09:41:10;;;;;;;;;;;;;;;28.04;26.78;100350.25;4977227;28;2082;-36
2022/11/19 09:43:41;;;;;;;;;;;;;;;28.07;26.81;100347.16;4977267;28;2092;-36
2022/11/19 09:46:21;;;;;;;;;;;;;;;27.99;27.28;100358.94;4977633;28;1994;-36
2022/11/19 09:48:46;;;;;;;;;;;;;;;28.01;26.85;100357.91;4977626;28;1103;-35
2022/11/19 09:51:13;;;;;;;;;;;;;;;28.04;27.20;100355.66;4960477;28;1070;-34
2022/11/19 09:53:39;;;;;;;;;;;;;;;28.06;27.24;100367.09;4960360;28;882;-34
2022/11/19 09:56:05;;;;;;;;;;;;;;;28.09;27.24;100361.28;4977856;28;1141;-34
2022/11/19 09:58:40;;;;;;;;;;;;;;;28.17;26.98;100362.16;4976694;28;1285;-35
2022/11/19 10:01:05;;;;;;;;;;;;;;;28.11;26.88;100364.63;4941086;29;1211;-35
2022/11/19 10:03:31;;;;;;;;;;;;;;;28.08;27.03;100356.91;4976212;28;1178;-35
2022/11/19 10:06:02;;;;;;;;;;;;;;;28.09;27.36;100355.88;4976990;28;1902;-35
2022/11/19 10:08:31;;;;;;;;;;;;;;;28.16;27.17;100365.91;4977494;28;1126;-34
2022/11/19 10:11:16;;;;;;;;;;;;;;;28.14;27.26;100365.28;4964214;28;1126;-34
2022/11/19 10:13:51;;;;;;;;;;;;;;;28.13;27.11;100366.31;4976331;28;2357;-35
2022/11/19 10:16:20;;;;;;;;;;;;;;;28.15;27.47;100358.81;4960187;28;1174;-36
2022/11/19 10:18:48;;;;;;;;;;;;;;;28.19;27.44;100363.66;4959594;28;1194;-33
2022/11/19 10:21:17;;;;;;;;;;;;;;;28.15;27.41;100375.03;4977387;28;1236;-35
2022/11/19 10:23:50;;;;;;;;;;;;;;;28.14;27.19;100371.53;4959734;28;1134;-35
2022/11/19 10:26:25;;;;;;;;;;;;;;;28.18;27.42;100378.19;4976812;28;1996;-33
2022/11/19 10:28:56;;;;;;;;;;;;;;;28.17;27.23;100372.97;4959931;28;1196;-34
2022/11/19 10:31:22;;;;;;;;;;;;;;;28.16;27.33;100382.13;4968144;28;1158;-35
2022/11/19 10:33:51;;;;;;;;;;;;;;;28.17;26.98;100378.38;4976865;28;1181;-35
2022/11/19 10:36:18;;;;;;;;;;;;;;;28.15;27.18;100378.59;4959608;28;1155;-36
2022/11/19 10:38:44;;;;;;;;;;;;;;;28.17;27.35;100373.81;4958941;28;1238;-35
2022/11/19 10:41:09;;;;;;;;;;;;;;;28.26;26.90;100382.59;4976521;28;1299;-36
2022/11/19 10:43:40;;;;;;;;;;;;;;;28.09;26.75;100387.50;4976531;28;1809;-38
2022/11/19 10:46:05;;;;;;;;;;;;;;;27.56;26.90;100391.47;4959838;28;1948;-38
2022/11/19 10:48:40;;;;;;;;;;;;;;;27.12;27.40;100386.91;4959539;28;1149;-38
2022/11/19 10:51:09;;;;;;;;;;;;;;;27.15;27.37;100399.19;4960043;28;1166;-38
2022/11/19 10:53:35;;;;;;;;;;;;;;;27.13;26.88;100398.53;4959128;28;1289;-37
2022/11/19 10:56:19;;;;;;;;;;;;;;;27.07;27.37;100402.84;4977293;28;1303;-36
2022/11/19 10:58:48;;;;;;;;;;;;;;;26.87;26.95;100398.03;4976627;28;1230;-36
2022/11/19 11:01:36;;;;;;;;;;;;;;;26.92;26.91;100402.84;4959702;28;1226;-34
2022/11/19 11:04:16;;;;;;;;;;;;;;;26.89;27.14;100412.16;4959377;28;1210;-35
2022/11/19 11:06:54;;;;;;;;;;;;;;;27.16;26.98;100416.22;4976582;28;1903;-37
2022/11/19 11:09:29;;;;;;;;;;;;;;;27.13;27.24;100412.03;4976886;28;1174;-36
2022/11/19 11:14:51;;;;;;;;;;;;;;;27.28;27.18;100416.56;4976921;28;2716;-37
2022/11/19 11:17:37;;;;;;;;;;;;;;;27.47;26.77;100417.75;4960883;28;1107;-37
2022/11/19 11:20:07;;;;;;;;;;;;;;;26.92;27.08;100418.19;4973348;28;1127;-36
2022/11/19 11:22:32;;;;;;;;;;;;;;;27.17;27.37;100407.94;4976766;28;1237;-37
2022/11/19 11:24:58;;;;;;;;;;;;;;;27.17;27.25;100401.69;4976758;28;1138;-36
2022/11/19 11:27:27;;;;;;;;;;;;;;;27.15;26.87;100409.97;4959483;28;1914;-36
2022/11/19 11:30:05;;;;;;;;;;;;;;;27.37;26.46;100415.38;4975960;28;1209;-37
2022/11/19 11:32:30;;;;;;;;;;;;;;;27.28;26.67;100421.97;4976722;28;1260;-38
2022/11/19 11:34:55;;;;;;;;;;;;;;;27.21;26.76;100427.28;4976308;28;1174;-37
2022/11/19 11:37:21;;;;;;;;;;;;;;;27.38;26.13;100427.84;4976244;28;1114;-36
2022/11/19 11:39:48;;;;;;;;;;;;;;;27.12;26.43;100431.97;4959268;28;1138;-37
2022/11/19 11:42:16;;;;;;;;;;;;;;;27.00;26.17;100439.69;4958952;28;1206;-36
2022/11/19 11:45:07;;;;;;;;;;;;;;;26.94;26.75;100429.66;4976182;28;2237;-36
2022/11/19 11:47:37;;;;;;;;;;;;;;;27.83;25.86;100424.13;4974552;28;1914;-37
2022/11/19 11:50:16;;;;;;;;;;;;;;;28.16;25.85;100422.69;4959044;28;1123;-35
2022/11/19 11:52:46;;;;;;;;;;;;;;;28.33;25.98;100415.97;4976727;28;1126;-36
2022/11/19 11:55:30;;;;;;;;;;;;;;;28.44;25.72;100424.56;4960776;28;1218;-36
2022/11/19 11:57:56;;;;;;;;;;;;;;;28.42;25.88;100423.91;4979958;28;1217;-36
2022/11/19 12:00:27;;;;;;;;;;;;;;;28.47;25.94;100411.47;4979514;28;1181;-37
2022/11/19 12:03:08;;;;;;;;;;;;;;;28.57;25.83;100410.25;4979708;28;1309;-37
2022/11/19 12:05:41;;;;;;;;;;;;;;;28.36;26.35;100404.75;4979549;28;1078;-35
2022/11/19 12:08:08;;;;;;;;;;;;;;;28.35;26.24;100404.94;4962344;28;1110;-35
2022/11/19 12:10:52;;;;;;;;;;;;;;;28.38;26.61;100398.31;4962341;28;1134;-35
2022/11/19 12:13:20;;;;;;;;;;;;;;;28.60;25.87;100396.31;4967768;28;2496;-36
2022/11/19 12:15:48;;;;;;;;;;;;;;;28.54;26.58;100397.13;4978930;28;1477;-36
2022/11/19 12:18:17;;;;;;;;;;;;;;;28.63;25.96;100400.50;4966020;28;1138;-35
2022/11/19 12:21:11;;;;;;;;;;;;;;;28.64;25.84;100394.03;4979898;28;1158;-35
2022/11/19 12:23:57;;;;;;;;;;;;;;;28.62;26.06;100394.25;4920534;28;1166;-35
2022/11/19 12:26:31;;;;;;;;;;;;;;;28.56;26.36;100390.47;4978951;28;1894;-35
2022/11/19 12:28:59;;;;;;;;;;;;;;;28.59;25.84;100395.47;4977792;28;1129;-35
2022/11/19 12:31:37;;;;;;;;;;;;;;;28.55;26.15;100396.09;4971031;28;1150;-35
2022/11/19 12:34:21;;;;;;;;;;;;;;;28.51;26.40;100389.41;4957389;28;1150;-35
2022/11/19 12:36:56;;;;;;;;;;;;;;;28.32;26.62;100384.50;4979325;28;1114;-34
2022/11/19 12:39:47;;;;;;;;;;;;;;;28.30;26.72;100383.88;4978338;28;1118;-34
2022/11/19 12:42:15;;;;;;;;;;;;;;;28.31;26.62;100374.72;4954807;28;1324;-36
2022/11/19 12:45:04;;;;;;;;;;;;;;;28.25;26.40;100380.94;4978768;28;2233;-36
2022/11/19 12:48:00;;;;;;;;;;;;;;;28.06;26.56;100380.59;4955051;28;1938;-35
2022/11/19 12:50:27;;;;;;;;;;;;;;;28.05;26.74;100388.91;4977842;28;1268;-35
2022/11/19 12:53:11;;;;;;;;;;;;;;;28.01;26.65;100391.19;4962056;28;1189;-34
2022/11/19 12:55:41;;;;;;;;;;;;;;;27.77;27.18;100385.22;4978068;28;1193;-33
2022/11/19 12:58:09;;;;;;;;;;;;;;;27.63;26.93;100390.47;4961592;28;1126;-33
2022/11/19 13:00:35;;;;;;;;;;;;;;;27.48;27.67;100393.25;4978789;28;1292;-35
2022/11/19 13:03:03;;;;;;;;;;;;;;;27.58;27.52;100395.63;4961693;28;1218;-36
2022/11/19 13:05:47;;;;;;;;;;;;;;;27.52;27.66;100391.00;4977830;28;1328;-35
2022/11/19 13:08:17;;;;;;;;;;;;;;;27.50;27.53;100388.50;4978675;28;865;-34
2022/11/19 13:10:47;;;;;;;;;;;;;;;27.39;27.48;100397.13;4978015;28;1055;-35
2022/11/19 13:13:13;;;;;;;;;;;;;;;27.50;27.76;100399.31;4960856;28;1960;-35